Latest Weather Observations for Rolleston Airport

IDQ60801

Issued at 9:35 pm EST Wednesday 23 July 2014 (issued every 30 minutes, with the page automatically refreshed every 10 minutes)

About weather observations | Map of weather stations | Latest weather observations for QLD | Other Formats
Station Details ID: 035129 Name: ROLLESTON AIRPORT Lat: -24.46 Lon: 148.63 Height: 219.45 m
Data from the previous 72 hours. | See also: Recent months at Rolleston Airport
Date/Time
EST
Temp
°C
App
Temp
°C
Dew
Point
Rel
Hum
%
Delta-T
°C
Wind Press
QNH
hPa
Press
MSL
hPa
Rain
since 9 am
mm
Dir
 
Spd
km/h
Gust
km/h
Spd
kts
Gust
kts
23/09:30pm 12.1 10.5 2.3 51 4.3 SW 0 0 0 0 1019.9 - 0.0
23/09:00pm 13.7 11.4 2.6 47 4.9 SE 4 4 2 2 1019.7 1019.6 0.0
23/08:30pm 14.3 11.4 1.6 42 5.6 E 6 7 3 4 1019.6 - 0.0
23/08:00pm 16.7 12.9 2.0 37 6.6 E 11 13 6 7 1019.3 1019.2 0.0
23/07:30pm 16.9 13.2 2.5 38 6.6 E 11 13 6 7 1018.8 - 0.0
23/07:00pm 17.2 14.3 2.4 37 6.8 ENE 7 9 4 5 1018.7 1018.5 0.0
23/06:30pm 18.4 15.5 2.7 35 7.3 E 7 9 4 5 1018.2 - 0.0
23/06:00pm 19.9 18.1 3.2 33 7.9 ESE 2 4 1 2 1018.0 1017.8 0.0
23/05:30pm 21.9 20.3 2.6 28 9.2 CALM 0 0 0 0 1017.9 - 0.0
23/05:00pm 23.3 21.5 3.3 27 9.8 N 2 6 1 3 1017.7 1017.5 0.0
23/04:30pm 23.1 20.5 3.1 27 9.7 SSE 6 13 3 7 1017.4 - 0.0
23/04:00pm 23.7 21.5 3.6 27 9.9 S 4 7 2 4 1017.3 1017.1 0.0
23/03:30pm 23.4 20.5 2.8 26 10.0 SE 7 15 4 8 1017.2 - 0.0
23/03:00pm 23.0 20.2 1.9 25 10.0 E 6 11 3 6 1017.4 1017.2 0.0
23/02:30pm 22.8 20.0 2.3 26 9.8 NNE 6 13 3 7 1017.8 - 0.0
23/02:00pm 22.9 20.2 2.9 27 9.7 NNW 6 11 3 6 1018.1 1017.9 0.0
23/01:30pm 22.6 19.6 4.2 30 9.1 NNE 9 15 5 8 1018.4 - 0.0
23/01:00pm 22.3 20.9 5.3 33 8.5 SW 2 6 1 3 1019.1 1018.9 0.0
23/12:30pm 21.4 19.2 5.3 35 8.1 SE 6 11 3 6 1019.7 - 0.0
23/12:00pm 21.4 19.7 6.1 37 7.8 W 4 7 2 4 1020.5 1020.4 0.0
23/11:30am 20.4 18.6 5.6 38 7.4 W 4 9 2 5 1021.3 - 0.0
23/11:00am 19.9 18.1 5.2 38 7.2 NNW 4 7 2 4 1022.1 1021.9 0.0
23/10:30am 19.3 17.2 3.9 36 7.4 NW 4 7 2 4 1022.6 - 0.0
23/10:00am 18.2 16.7 2.9 36 7.1 CALM 0 4 0 2 1022.9 1022.7 0.0
23/09:30am 14.7 12.0 0.2 37 6.2 S 4 7 2 4 1023.2 - 0.0
23/09:00am 11.7 8.4 -1.4 40 5.2 SW 6 9 3 5 1023.5 1023.4 0.0
23/08:30am 9.7 6.4 -4.3 37 5.1 SSW 4 7 2 4 1022.2 - 0.0
23/08:00am 7.9 4.2 -4.2 42 4.3 S 6 7 3 4 1021.7 1021.5 0.0
23/07:30am 6.0 2.7 -4.2 48 3.6 S 4 7 2 4 1021.9 - 0.0
23/07:00am 3.8 0.2 -3.9 57 2.6 S 6 7 3 4 1021.5 1021.3 0.0
23/06:30am 3.1 0.6 -4.3 58 2.5 CALM 0 0 0 0 1021.1 - 0.0
23/06:00am 2.8 0.3 -4.4 59 2.4 SSW 0 0 0 0 1020.8 1020.7 0.0
23/05:30am 3.2 0.6 -4.5 57 2.6 CALM 0 0 0 0 1020.4 - 0.0
23/05:00am 3.5 1.0 -4.4 56 2.7 CALM 0 0 0 0 1020.0 1019.9 0.0
23/04:30am 3.6 0.5 -6.1 49 3.1 N 2 6 1 3 1019.8 - 0.0
23/04:00am 5.6 2.3 -4.0 50 3.4 SSE 4 6 2 3 1019.5 1019.4 0.0
23/03:30am 5.2 1.9 -4.6 49 3.4 S 4 6 2 3 1019.6 - 0.0
23/03:00am 5.5 2.5 -4.9 47 3.6 S 2 4 1 2 1019.5 1019.4 0.0
23/02:30am 5.2 1.5 -4.9 48 3.4 S 6 6 3 3 1019.6 - 0.0
23/02:00am 5.3 1.3 -7.2 40 4.0 SSE 6 9 3 5 1019.6 1019.5 0.0
23/01:30am 7.6 3.6 -5.4 39 4.5 SSE 7 7 4 4 1019.6 - 0.0
23/01:00am 7.7 4.0 -5.0 40 4.4 SSE 6 7 3 4 1019.8 1019.7 0.0
23/12:30am 8.4 4.1 -4.7 39 4.7 SSE 9 11 5 6 1019.9 - 0.0
23/12:00am 9.7 5.4 -5.0 35 5.3 SSE 9 9 5 5 1020.1 1020.0 0.0
 
Date/Time
EST
Temp
°C
App
Temp
°C
Dew
Point
Rel
Hum
%
Delta-T
°C
Wind Press
QNH
hPa
Press
MSL
hPa
Rain
since 9 am
mm
Dir
 
Spd
km/h
Gust
km/h
Spd
kts
Gust
kts
22/11:30pm 8.9 4.1 -5.7 35 5.1 SSE 11 11 6 6 1020.2 - 0.0
22/11:00pm 10.1 5.7 -5.8 32 5.6 SSE 9 11 5 6 1020.3 1020.2 0.0
22/10:30pm 9.2 4.5 -5.1 36 5.1 SSE 11 13 6 7 1020.1 - 0.0
22/10:00pm 9.4 5.1 -5.3 35 5.2 SSE 9 11 5 6 1019.9 1019.8 0.0
22/09:30pm 11.8 7.5 -4.8 31 6.2 SE 9 13 5 7 1019.8 - 0.0
22/09:00pm 10.2 5.5 -4.6 35 5.4 SE 11 13 6 7 1019.8 1019.7 0.0
22/08:30pm 12.6 8.8 -4.1 31 6.4 SSE 7 11 4 6 1019.8 - 0.0
22/08:00pm 12.8 9.2 -3.5 32 6.3 S 6 9 3 5 1019.4 1019.3 0.0
22/07:30pm 15.0 12.5 -4.3 26 7.5 CALM 0 0 0 0 1019.1 - 0.0
22/07:00pm 16.4 12.6 -6.0 21 8.5 E 6 7 3 4 1018.9 1018.7 0.0
22/06:30pm 18.5 14.6 -4.9 20 9.3 E 7 9 4 5 1018.6 - 0.0
22/06:00pm 20.3 16.4 -4.8 18 10.2 E 7 9 4 5 1018.1 1017.9 0.0
22/05:30pm 22.1 18.7 -4.9 16 11.2 ESE 4 6 2 3 1017.8 - 0.0
22/05:00pm 22.6 18.9 -4.5 16 11.3 SE 6 7 3 4 1017.6 1017.4 0.0
22/04:30pm 23.6 19.2 -5.4 14 12.0 S 9 13 5 7 1017.5 - 0.0
22/04:00pm 24.1 20.2 -5.0 14 12.2 SSE 7 13 4 7 1017.4 1017.2 0.0
22/03:30pm 24.6 20.7 -4.6 14 12.4 SSW 7 13 4 7 1017.5 - 0.0
22/03:00pm 24.5 20.2 -4.7 14 12.4 SSW 9 17 5 9 1017.6 1017.4 0.0
22/02:30pm 24.5 20.8 -4.7 14 12.4 SW 6 11 3 6 1017.7 - 0.0
22/02:00pm 23.8 19.9 -4.4 15 11.9 W 7 15 4 8 1018.0 1017.8 0.0
22/01:30pm 23.1 20.1 -1.8 19 11.0 S 4 6 2 3 1018.4 - 0.0
22/01:00pm 22.9 20.0 -1.2 20 10.8 SE 4 7 2 4 1018.9 1018.7 0.0
22/12:30pm 22.4 19.1 -1.0 21 10.5 NNE 6 15 3 8 1019.7 - 0.0
22/12:00pm 21.8 18.6 -0.2 23 9.9 N 6 13 3 7 1020.5 1020.4 0.0
22/11:30am 20.8 18.1 0.6 26 9.2 W 4 6 2 3 1021.2 - 0.0
22/11:00am 19.2 16.4 -0.2 27 8.5 W 4 7 2 4 1021.9 1021.7 0.0
22/10:30am 17.4 14.9 -1.3 28 8.0 SW 2 6 1 3 1022.6 - 0.0
22/10:00am 15.8 13.2 -1.7 30 7.2 SSE 2 6 1 3 1022.9 1022.7 0.0
22/09:30am 13.2 10.9 -2.3 34 6.2 CALM 0 0 0 0 1023.1 - 0.0
22/09:00am 10.7 8.1 -2.0 41 4.9 SE 2 4 1 2 1022.9 1022.7 0.0
22/08:30am 7.8 4.3 -3.1 46 4.0 SSE 6 7 3 4 1022.8 - 0.0
22/08:00am 5.9 2.8 -2.9 53 3.2 S 4 6 2 3 1022.6 1022.4 0.0
22/07:30am 3.3 0.9 -3.5 61 2.3 CALM 0 0 0 0 1022.3 - 0.0
22/07:00am 1.5 -1.1 -4.8 63 2.1 CALM 0 4 0 2 1022.0 1021.8 0.0
22/06:30am 2.7 -0.8 -3.2 65 2.0 S 6 7 3 4 1021.7 - 0.0
22/06:00am 2.3 -0.5 -3.2 67 1.9 SSW 2 4 1 2 1021.1 1021.0 0.0
22/05:30am 1.4 -1.2 -5.3 61 2.2 CALM 0 0 0 0 1021.0 - 0.0
22/05:00am 2.1 -1.7 -4.0 64 2.0 SSW 7 9 4 5 1020.7 1020.6 0.0
22/04:30am 1.9 -1.1 -4.8 61 2.3 N 2 9 1 5 1020.6 - 0.0
22/04:00am 1.7 -2.0 -4.4 64 2.1 S 6 7 3 4 1020.4 1020.3 0.0
22/03:30am 2.6 -1.1 -5.0 57 2.5 S 6 6 3 3 1020.4 - 0.0
22/03:00am 4.3 0.6 -4.4 53 3.0 SSE 6 7 3 4 1020.3 1020.2 0.0
22/02:30am 4.3 0.6 -4.2 54 2.9 S 6 7 3 4 1020.5 - 0.0
22/02:00am 4.1 1.1 -4.9 52 3.0 SSE 2 6 1 3 1020.6 1020.5 0.0
22/01:30am 4.8 1.1 -4.2 52 3.1 SSE 6 7 3 4 1020.5 - 0.0
22/01:00am 7.0 3.2 -4.1 45 3.9 SSE 7 9 4 5 1020.6 1020.5 0.0
22/12:30am 7.3 3.1 -3.8 45 4.0 SSE 9 9 5 5 1020.7 - 0.0
22/12:00am 6.8 3.0 -3.4 48 3.7 S 7 9 4 5 1020.9 1020.8 0.0
 
Date/Time
EST
Temp
°C
App
Temp
°C
Dew
Point
Rel
Hum
%
Delta-T
°C
Wind Press
QNH
hPa
Press
MSL
hPa
Rain
since 9 am
mm
Dir
 
Spd
km/h
Gust
km/h
Spd
kts
Gust
kts
21/11:30pm 6.7 2.9 -3.5 48 3.7 SSE 7 9 4 5 1021.1 - 0.0
21/11:00pm 6.4 2.8 -3.8 48 3.6 SSW 6 7 3 4 1021.2 1021.1 0.0
21/10:30pm 7.1 3.5 -3.7 46 3.9 SE 6 15 3 8 1021.2 - 0.0
21/10:00pm 8.7 6.3 -2.9 44 4.3 CALM 0 0 0 0 1021.3 1021.2 0.0
21/09:30pm 10.2 7.0 -3.8 37 5.2 ENE 4 6 2 3 1021.3 - 0.0
21/09:00pm 10.9 8.0 -3.9 35 5.5 SSE 2 4 1 2 1021.3 1021.2 0.0
21/08:30pm 14.4 10.7 -2.9 30 6.9 ESE 7 11 4 6 1021.2 - 0.0
21/08:00pm 11.7 8.9 -3.2 35 5.7 WSW 2 6 1 3 1021.0 1020.9 0.0
21/07:30pm 14.2 11.8 -3.1 30 6.9 CALM 0 0 0 0 1020.6 - 0.0
21/07:00pm 15.2 12.8 -3.2 28 7.3 CALM 0 0 0 0 1020.4 1020.3 0.0
21/06:30pm 17.9 15.5 -3.5 23 8.7 CALM 0 0 0 0 1020.2 - 0.0
21/06:00pm 17.9 15.1 -3.5 23 8.7 S 2 2 1 1 1019.6 1019.5 0.0
21/05:30pm 20.0 17.2 -3.6 20 9.8 S 2 4 1 2 1019.4 - 0.0
21/05:00pm 22.1 19.3 -3.3 18 10.8 WSW 2 4 1 2 1019.2 1019.0 0.0
21/04:30pm 22.4 18.9 -3.1 18 10.9 WSW 6 9 3 5 1018.9 - 0.0
21/04:00pm 22.6 19.5 -2.9 18 11.0 SSW 4 7 2 4 1018.9 1018.7 0.0
21/03:30pm 22.1 18.4 -2.6 19 10.7 WSW 7 19 4 10 1018.8 - 0.0
21/03:00pm 22.6 19.0 -2.2 19 10.8 ENE 7 26 4 14 1018.5 1018.3 0.0
21/02:30pm 22.4 19.0 -2.3 19 10.8 WSW 6 9 3 5 1018.9 - 0.0
21/02:00pm 22.3 18.8 -1.7 20 10.5 SE 7 11 4 6 1019.3 1019.2 0.0
21/01:30pm 21.3 17.9 -1.9 21 10.1 SSW 6 11 3 6 1019.7 - 0.0
21/01:00pm 21.3 18.3 -1.9 21 10.1 NW 4 9 2 5 1019.9 1019.8 0.0
21/12:30pm 21.1 17.8 -1.4 22 9.9 WSW 6 11 3 6 1020.4 - 0.0
21/12:00pm 20.3 16.8 -1.5 23 9.4 NNE 7 11 4 6 1021.1 1021.0 0.0
21/11:30am 19.4 15.9 -1.1 25 8.9 ESE 7 13 4 7 1021.9 - 0.0
21/11:00am 18.6 15.4 -0.2 28 8.2 ESE 6 11 3 6 1022.6 1022.4 0.0
21/10:30am 17.0 13.8 -0.7 30 7.6 SE 6 9 3 5 1023.0 - 0.0
21/10:00am 15.0 11.6 -0.3 35 6.5 S 7 9 4 5 1023.3 1023.2 0.0
21/09:30am 12.6 9.9 0.0 42 5.3 SSW 4 6 2 3 1023.7 - 0.0
21/09:00am 9.5 6.2 -1.5 46 4.3 SSW 6 7 3 4 1023.7 1023.6 0.0
21/08:30am 7.5 4.5 -1.7 52 3.5 S 4 7 2 4 1023.5 - 0.0
21/08:00am 4.7 2.1 -1.9 62 2.4 SSW 2 4 1 2 1023.3 1023.2 0.0
21/07:30am 2.0 -1.1 -2.5 72 1.6 SSW 4 6 2 3 1023.2 - 0.0
21/07:00am -0.7 -3.3 -5.1 72 1.4 CALM 0 0 0 0 1023.1 1023.0 0.0
21/06:30am -0.5 -3.8 -4.0 77 1.1 S 4 4 2 2 1022.8 - 0.0
21/06:00am 0.8 -2.8 -3.3 74 1.4 S 6 6 3 3 1022.5 1022.3 0.0
21/05:30am 1.4 -2.1 -2.9 73 1.6 SSE 6 7 3 4 1022.1 - 0.0
21/05:00am 2.5 -0.1 -2.0 72 1.6 SSE 2 4 1 2 1021.9 1021.7 0.0
21/04:30am 2.1 -0.2 -2.0 74 1.4 CALM 0 0 0 0 1021.8 - 0.0
21/04:00am 2.0 -0.8 -3.1 69 1.7 SSW 2 4 1 2 1021.8 1021.6 0.0
21/03:30am 1.6 -0.9 -3.9 67 1.9 CALM 0 0 0 0 1021.7 - 0.0
21/03:00am 2.6 -0.6 -3.5 64 2.1 SSE 4 4 2 2 1021.3 1021.2 0.0
21/02:30am 2.6 -0.6 -3.5 64 2.1 S 4 6 2 3 1021.6 - 0.0
21/02:00am 4.3 1.2 -2.3 62 2.4 S 4 6 2 3 1021.7 1021.5 0.0
21/01:30am 3.5 0.7 -3.3 61 2.4 SSE 2 6 1 3 1021.9 - 0.0
21/01:00am 4.2 1.8 -3.3 58 2.6 CALM 0 0 0 0 1022.1 1021.9 0.0
21/12:30am 5.6 2.2 -2.2 57 2.9 SSE 6 7 3 4 1022.1 - 0.0
21/12:00am 6.3 3.3 -1.6 57 3.0 S 4 4 2 2 1022.1 1021.9 0.0
 
Date/Time
EST
Temp
°C
App
Temp
°C
Dew
Point
Rel
Hum
%
Delta-T
°C
Wind Press
QNH
hPa
Press
MSL
hPa
Rain
since 9 am
mm
Dir
 
Spd
km/h
Gust
km/h
Spd
kts
Gust
kts
20/11:30pm 5.5 2.7 -3.3 53 3.1 S 2 4 1 2 1022.2 - 0.0
20/11:00pm 6.8 3.8 -2.1 53 3.3 S 4 6 2 3 1022.3 1022.1 0.0
20/10:30pm 6.3 3.2 -2.8 52 3.3 S 4 6 2 3 1022.4 - 0.0
20/10:00pm 7.4 4.0 -2.3 50 3.6 S 6 7 3 4 1022.4 1022.2 0.0

Other Formats:

Comma delimited format used in spreadsheet applications
http://www.bom.gov.au/fwo/IDQ60801/IDQ60801.94396.axf

JavaScript Object Notation format (JSON) in row-major order
http://www.bom.gov.au/fwo/IDQ60801/IDQ60801.94396.json